Etusivu
METAR-TAF:

METAR-TAF

Lentoasemat :

Bryan, Texas, Yhdysvallat

Leveyspiiri: 30-42-56N, Pituuspiiri: 096-19-53W, korkeus merenpinnasta: 112 m

Tämänhetkinen sää

Tämä raportti tehtiin 22 minuuttia sitten, kello 05.55 UTC
Tuuli 7 kn etelästä
Lämpötila 28°C
Kosteus 79%
Ilmanpaine 1016 hPa
Näkyvyys: 16.1 km
selkeää

METAR: KCFD 190555Z AUTO 17007KT 10SM CLR 28/24 A3000 RMK AO2 T02770240 10345 20277 403660257

Aika: 00:17 (06:17 UTC)


TAF: puuttuu

Säähavainnot ja -ennusteet yli 4000 lentoasemalta (METAR- ja TAF-raportit).

Käytössä olevat sääasemat on merkitty karttaan keltaisilla ja punaisilla pisteillä.

Aseta hiiri pisteen päälle nähdäksesi sääaseman nimen.

Klikkaa sitten nähdäksesi säähavainnot ja -ennusteet.

Kartan vaihtaminen: klikkaa mustalla rastilla varustettuja vihreitä pisteitä, niin voit zoomata sisään; viivalla varustettua vihreää pistettä, niin voit zoomata ulos tai vihreitä nuolia, niin pääset viereisille kartoille.


METAR-TAF: